sensor_id;sensor_type;location;lat;lon;timestamp;pressure;altitude;pressure_sealevel;temperature;humidity
52777;BME280;38656;54.260;20.822;2023-06-14T00:01:06;101238.34;;;24.35;54.28
52777;BME280;38656;54.260;20.822;2023-06-14T00:03:33;101238.53;;;24.33;54.00
52777;BME280;38656;54.260;20.822;2023-06-14T00:05:59;101241.44;;;24.32;53.74
52777;BME280;38656;54.260;20.822;2023-06-14T00:08:25;101233.44;;;24.24;53.69
52777;BME280;38656;54.260;20.822;2023-06-14T00:10:51;101233.84;;;24.20;53.79
52777;BME280;38656;54.260;20.822;2023-06-14T00:13:18;101238.09;;;24.08;54.31
52777;BME280;38656;54.260;20.822;2023-06-14T00:15:44;101240.00;;;24.14;53.66
52777;BME280;38656;54.260;20.822;2023-06-14T00:18:12;101239.19;;;24.14;53.74
52777;BME280;38656;54.260;20.822;2023-06-14T00:20:38;101238.44;;;23.83;55.65
52777;BME280;38656;54.260;20.822;2023-06-14T00:23:05;101236.28;;;24.15;54.95
52777;BME280;38656;54.260;20.822;2023-06-14T00:25:31;101232.78;;;24.15;54.55
52777;BME280;38656;54.260;20.822;2023-06-14T00:27:58;101236.56;;;23.99;54.52
52777;BME280;38656;54.260;20.822;2023-06-14T00:30:25;101235.88;;;23.75;55.58
52777;BME280;38656;54.260;20.822;2023-06-14T00:32:51;101232.16;;;23.76;54.84
52777;BME280;38656;54.260;20.822;2023-06-14T00:35:17;101228.81;;;23.74;54.26
52777;BME280;38656;54.260;20.822;2023-06-14T00:37:43;101231.22;;;23.69;53.73
52777;BME280;38656;54.260;20.822;2023-06-14T00:40:10;101224.53;;;23.65;53.86
52777;BME280;38656;54.260;20.822;2023-06-14T00:42:36;101218.53;;;23.63;53.30
52777;BME280;38656;54.260;20.822;2023-06-14T00:45:02;101222.47;;;23.45;55.21
52777;BME280;38656;54.260;20.822;2023-06-14T00:47:28;101223.31;;;23.46;54.34
52777;BME280;38656;54.260;20.822;2023-06-14T00:49:55;101224.13;;;23.46;53.88
52777;BME280;38656;54.260;20.822;2023-06-14T00:52:23;101225.56;;;22.97;57.88
52777;BME280;38656;54.260;20.822;2023-06-14T00:54:52;101223.44;;;23.23;55.95
52777;BME280;38656;54.260;20.822;2023-06-14T00:57:19;101233.19;;;23.24;56.04
52777;BME280;38656;54.260;20.822;2023-06-14T00:59:48;101217.41;;;23.21;56.13
52777;BME280;38656;54.260;20.822;2023-06-14T01:02:15;101226.25;;;23.14;56.25
52777;BME280;38656;54.260;20.822;2023-06-14T01:04:42;101221.66;;;23.30;55.91
52777;BME280;38656;54.260;20.822;2023-06-14T01:13:08;101217.56;;;23.04;57.92
52777;BME280;38656;54.260;20.822;2023-06-14T01:15:37;101218.75;;;22.42;60.94
52777;BME280;38656;54.260;20.822;2023-06-14T01:18:05;101217.13;;;22.86;59.43
52777;BME280;38656;54.260;20.822;2023-06-14T01:20:33;101211.50;;;22.42;62.80
52777;BME280;38656;54.260;20.822;2023-06-14T01:23:02;101212.19;;;22.74;61.28
52777;BME280;38656;54.260;20.822;2023-06-14T01:25:28;101207.91;;;22.95;59.49
52777;BME280;38656;54.260;20.822;2023-06-14T01:28:05;101207.91;;;23.25;57.58
52777;BME280;38656;54.260;20.822;2023-06-14T01:30:40;101213.50;;;23.23;57.26
52777;BME280;38656;54.260;20.822;2023-06-14T01:33:12;101205.91;;;23.48;56.20
52777;BME280;38656;54.260;20.822;2023-06-14T01:35:43;101211.06;;;23.28;57.34
52777;BME280;38656;54.260;20.822;2023-06-14T01:38:10;101215.50;;;23.36;55.54
52777;BME280;38656;54.260;20.822;2023-06-14T01:40:37;101208.91;;;23.39;55.72
52777;BME280;38656;54.260;20.822;2023-06-14T01:43:05;101207.91;;;23.40;55.37
52777;BME280;38656;54.260;20.822;2023-06-14T01:45:32;101208.97;;;23.45;55.21
52777;BME280;38656;54.260;20.822;2023-06-14T01:48:00;101210.28;;;23.49;54.51
52777;BME280;38656;54.260;20.822;2023-06-14T01:50:31;101212.34;;;23.47;54.58
52777;BME280;38656;54.260;20.822;2023-06-14T01:52:57;101208.09;;;23.38;55.04
52777;BME280;38656;54.260;20.822;2023-06-14T01:55:24;101212.19;;;23.34;54.47
52777;BME280;38656;54.260;20.822;2023-06-14T01:57:53;101212.56;;;23.31;54.97
52777;BME280;38656;54.260;20.822;2023-06-14T02:00:20;101212.72;;;23.44;54.90
52777;BME280;38656;54.260;20.822;2023-06-14T02:02:47;101216.97;;;23.54;54.34
52777;BME280;38656;54.260;20.822;2023-06-14T02:05:13;101215.44;;;23.29;55.21
52777;BME280;38656;54.260;20.822;2023-06-14T02:07:41;101217.03;;;23.24;56.16
52777;BME280;38656;54.260;20.822;2023-06-14T02:10:07;101215.84;;;23.48;54.74
52777;BME280;38656;54.260;20.822;2023-06-14T02:12:34;101218.88;;;23.38;55.17
52777;BME280;38656;54.260;20.822;2023-06-14T02:15:00;101218.66;;;23.55;55.42
52777;BME280;38656;54.260;20.822;2023-06-14T02:17:26;101210.38;;;23.56;54.67
52777;BME280;38656;54.260;20.822;2023-06-14T02:19:52;101215.66;;;23.49;54.83
52777;BME280;38656;54.260;20.822;2023-06-14T02:22:18;101220.84;;;23.66;55.41
52777;BME280;38656;54.260;20.822;2023-06-14T02:24:46;101216.25;;;24.03;53.92
52777;BME280;38656;54.260;20.822;2023-06-14T02:27:13;101209.19;;;24.02;52.97
52777;BME280;38656;54.260;20.822;2023-06-14T02:29:39;101211.88;;;23.80;54.24
52777;BME280;38656;54.260;20.822;2023-06-14T02:32:06;101215.19;;;23.82;53.74
52777;BME280;38656;54.260;20.822;2023-06-14T02:34:35;101213.69;;;23.95;53.65
52777;BME280;38656;54.260;20.822;2023-06-14T02:37:02;101210.53;;;23.91;54.07
52777;BME280;38656;54.260;20.822;2023-06-14T02:39:31;101216.25;;;23.66;54.47
52777;BME280;38656;54.260;20.822;2023-06-14T02:41:57;101222.75;;;23.50;55.04
52777;BME280;38656;54.260;20.822;2023-06-14T02:44:27;101224.16;;;23.68;54.29
52777;BME280;38656;54.260;20.822;2023-06-14T02:46:56;101218.56;;;24.06;53.22
52777;BME280;38656;54.260;20.822;2023-06-14T02:49:24;101214.22;;;24.33;51.54
52777;BME280;38656;54.260;20.822;2023-06-14T02:51:51;101215.25;;;24.32;51.28
52777;BME280;38656;54.260;20.822;2023-06-14T02:54:17;101224.72;;;24.21;52.35
52777;BME280;38656;54.260;20.822;2023-06-14T02:56:43;101213.63;;;24.38;51.91
52777;BME280;38656;54.260;20.822;2023-06-14T02:59:09;101220.88;;;23.88;52.51
52777;BME280;38656;54.260;20.822;2023-06-14T03:01:36;101227.53;;;23.70;53.55
52777;BME280;38656;54.260;20.822;2023-06-14T03:04:05;101224.22;;;24.11;52.10
52777;BME280;38656;54.260;20.822;2023-06-14T03:06:31;101225.44;;;24.09;51.66
52777;BME280;38656;54.260;20.822;2023-06-14T03:08:58;101219.00;;;24.60;50.47
52777;BME280;38656;54.260;20.822;2023-06-14T03:11:30;101219.72;;;24.18;51.19
52777;BME280;38656;54.260;20.822;2023-06-14T03:13:57;101214.97;;;24.49;49.71
52777;BME280;38656;54.260;20.822;2023-06-14T03:16:23;101221.38;;;23.98;51.66
52777;BME280;38656;54.260;20.822;2023-06-14T03:18:52;101221.53;;;24.39;50.55
52777;BME280;38656;54.260;20.822;2023-06-14T03:21:22;101218.69;;;24.48;50.57
52777;BME280;38656;54.260;20.822;2023-06-14T03:23:49;101216.78;;;24.63;50.13
52777;BME280;38656;54.260;20.822;2023-06-14T03:26:15;101217.22;;;24.45;49.94
52777;BME280;38656;54.260;20.822;2023-06-14T03:28:47;101216.09;;;24.33;50.17
52777;BME280;38656;54.260;20.822;2023-06-14T03:31:14;101218.63;;;24.63;50.22
52777;BME280;38656;54.260;20.822;2023-06-14T03:33:42;101222.06;;;24.56;50.37
52777;BME280;38656;54.260;20.822;2023-06-14T03:36:08;101225.94;;;24.69;50.02
52777;BME280;38656;54.260;20.822;2023-06-14T03:38:34;101221.56;;;25.03;48.85
52777;BME280;38656;54.260;20.822;2023-06-14T03:41:01;101228.16;;;24.59;49.61
52777;BME280;38656;54.260;20.822;2023-06-14T03:43:27;101227.38;;;25.00;48.76
52777;BME280;38656;54.260;20.822;2023-06-14T03:45:55;101230.34;;;25.12;48.67
52777;BME280;38656;54.260;20.822;2023-06-14T03:48:22;101235.97;;;25.17;48.05
52777;BME280;38656;54.260;20.822;2023-06-14T03:50:48;101224.28;;;25.09;47.90
52777;BME280;38656;54.260;20.822;2023-06-14T03:53:14;101228.25;;;25.07;47.40
52777;BME280;38656;54.260;20.822;2023-06-14T03:55:41;101229.44;;;25.33;46.76
52777;BME280;38656;54.260;20.822;2023-06-14T03:58:07;101221.81;;;25.70;46.55
52777;BME280;38656;54.260;20.822;2023-06-14T04:00:33;101229.94;;;25.15;46.81
52777;BME280;38656;54.260;20.822;2023-06-14T04:03:00;101232.00;;;25.54;45.95
52777;BME280;38656;54.260;20.822;2023-06-14T04:05:26;101220.91;;;25.42;45.76
52777;BME280;38656;54.260;20.822;2023-06-14T04:07:52;101228.56;;;24.90;47.10
52777;BME280;38656;54.260;20.822;2023-06-14T04:10:21;101240.78;;;25.21;46.30
52777;BME280;38656;54.260;20.822;2023-06-14T04:12:48;101234.88;;;25.46;45.79
52777;BME280;38656;54.260;20.822;2023-06-14T04:15:14;101231.84;;;25.89;45.59
52777;BME280;38656;54.260;20.822;2023-06-14T04:17:40;101252.66;;;25.27;46.82
52777;BME280;38656;54.260;20.822;2023-06-14T04:20:07;101252.25;;;25.72;45.88
52777;BME280;38656;54.260;20.822;2023-06-14T04:22:35;101245.13;;;25.64;45.93
52777;BME280;38656;54.260;20.822;2023-06-14T04:25:02;101255.81;;;25.31;46.72
52777;BME280;38656;54.260;20.822;2023-06-14T04:27:28;101244.94;;;25.24;47.15
52777;BME280;38656;54.260;20.822;2023-06-14T04:29:57;101248.53;;;25.93;46.01
52777;BME280;38656;54.260;20.822;2023-06-14T04:32:24;101252.97;;;26.21;45.41
52777;BME280;38656;54.260;20.822;2023-06-14T04:34:58;101247.53;;;26.01;45.39
52777;BME280;38656;54.260;20.822;2023-06-14T04:37:25;101250.06;;;25.47;45.94
52777;BME280;38656;54.260;20.822;2023-06-14T04:39:54;101254.78;;;25.93;45.66
52777;BME280;38656;54.260;20.822;2023-06-14T04:42:22;101248.16;;;26.16;45.35
52777;BME280;38656;54.260;20.822;2023-06-14T04:44:51;101253.59;;;26.43;45.54
52777;BME280;38656;54.260;20.822;2023-06-14T04:47:20;101258.44;;;25.17;46.33
52777;BME280;38656;54.260;20.822;2023-06-14T04:49:47;101240.97;;;25.61;45.99
52777;BME280;38656;54.260;20.822;2023-06-14T04:52:13;101244.47;;;25.55;46.43
52777;BME280;38656;54.260;20.822;2023-06-14T04:54:42;101246.84;;;25.92;45.94
52777;BME280;38656;54.260;20.822;2023-06-14T04:57:09;101243.19;;;26.20;45.02
52777;BME280;38656;54.260;20.822;2023-06-14T04:59:40;101253.25;;;25.16;46.81
52777;BME280;38656;54.260;20.822;2023-06-14T05:02:07;101242.66;;;25.63;46.45
52777;BME280;38656;54.260;20.822;2023-06-14T05:04:34;101253.09;;;25.79;45.82
52777;BME280;38656;54.260;20.822;2023-06-14T05:07:08;101249.56;;;25.92;46.47
52777;BME280;38656;54.260;20.822;2023-06-14T05:09:36;101244.84;;;26.41;45.32
52777;BME280;38656;54.260;20.822;2023-06-14T05:12:03;101253.59;;;26.56;45.02
52777;BME280;38656;54.260;20.822;2023-06-14T05:14:29;101242.28;;;26.99;44.46
52777;BME280;38656;54.260;20.822;2023-06-14T05:16:55;101246.28;;;26.10;45.16
52777;BME280;38656;54.260;20.822;2023-06-14T05:19:21;101253.16;;;26.66;44.96
52777;BME280;38656;54.260;20.822;2023-06-14T05:21:48;101245.53;;;27.28;44.34
52777;BME280;38656;54.260;20.822;2023-06-14T05:24:15;101247.00;;;27.69;43.57
52777;BME280;38656;54.260;20.822;2023-06-14T05:26:43;101243.75;;;26.95;43.76
52777;BME280;38656;54.260;20.822;2023-06-14T05:29:09;101255.16;;;27.11;44.17
52777;BME280;38656;54.260;20.822;2023-06-14T05:31:35;101246.41;;;25.75;45.54
52777;BME280;38656;54.260;20.822;2023-06-14T05:34:01;101247.09;;;26.84;44.27
52777;BME280;38656;54.260;20.822;2023-06-14T05:36:28;101246.78;;;27.26;44.10
52777;BME280;38656;54.260;20.822;2023-06-14T05:38:54;101242.41;;;28.08;43.13
52777;BME280;38656;54.260;20.822;2023-06-14T05:41:28;101255.25;;;27.88;42.78
52777;BME280;38656;54.260;20.822;2023-06-14T05:43:55;101245.09;;;27.77;42.60
52777;BME280;38656;54.260;20.822;2023-06-14T05:46:22;101258.22;;;27.80;42.53
52777;BME280;38656;54.260;20.822;2023-06-14T05:48:52;101254.66;;;28.18;42.81
52777;BME280;38656;54.260;20.822;2023-06-14T05:51:18;101257.38;;;29.61;40.75
52777;BME280;38656;54.260;20.822;2023-06-14T05:53:48;101264.78;;;28.80;40.31
52777;BME280;38656;54.260;20.822;2023-06-14T05:56:15;101250.50;;;28.66;41.60
52777;BME280;38656;54.260;20.822;2023-06-14T05:58:43;101253.31;;;29.14;39.88
52777;BME280;38656;54.260;20.822;2023-06-14T06:01:10;101249.81;;;29.63;39.52
52777;BME280;38656;54.260;20.822;2023-06-14T06:03:36;101256.25;;;29.80;39.17
52777;BME280;38656;54.260;20.822;2023-06-14T06:06:03;101257.66;;;30.01;39.05
52777;BME280;38656;54.260;20.822;2023-06-14T06:08:29;101266.16;;;29.63;38.89
52777;BME280;38656;54.260;20.822;2023-06-14T06:10:56;101258.88;;;29.57;39.34
52777;BME280;38656;54.260;20.822;2023-06-14T06:13:22;101261.25;;;28.54;40.79
52777;BME280;38656;54.260;20.822;2023-06-14T06:15:48;101267.81;;;29.82;38.88
52777;BME280;38656;54.260;20.822;2023-06-14T06:18:15;101256.59;;;29.42;38.85
52777;BME280;38656;54.260;20.822;2023-06-14T06:20:41;101251.84;;;29.98;39.11
52777;BME280;38656;54.260;20.822;2023-06-14T06:23:07;101265.59;;;30.03;38.84
52777;BME280;38656;54.260;20.822;2023-06-14T06:25:35;101263.00;;;29.47;39.07
52777;BME280;38656;54.260;20.822;2023-06-14T06:28:01;101265.34;;;29.74;38.94
52777;BME280;38656;54.260;20.822;2023-06-14T06:30:28;101255.81;;;29.83;38.14
52777;BME280;38656;54.260;20.822;2023-06-14T06:32:54;101264.09;;;30.31;38.25
52777;BME280;38656;54.260;20.822;2023-06-14T06:35:21;101271.63;;;29.93;39.08
52777;BME280;38656;54.260;20.822;2023-06-14T06:37:47;101268.28;;;30.69;37.65
52777;BME280;38656;54.260;20.822;2023-06-14T06:40:14;101267.00;;;30.60;37.79
52777;BME280;38656;54.260;20.822;2023-06-14T06:42:40;101272.19;;;29.65;38.89
52777;BME280;38656;54.260;20.822;2023-06-14T06:45:06;101278.25;;;30.99;37.38
52777;BME280;38656;54.260;20.822;2023-06-14T06:47:33;101275.03;;;30.78;37.70
52777;BME280;38656;54.260;20.822;2023-06-14T06:49:59;101279.31;;;30.86;37.02
52777;BME280;38656;54.260;20.822;2023-06-14T06:52:25;101273.41;;;31.41;37.33
52777;BME280;38656;54.260;20.822;2023-06-14T06:54:52;101275.91;;;30.01;38.40
52777;BME280;38656;54.260;20.822;2023-06-14T06:57:21;101279.66;;;31.13;36.85
52777;BME280;38656;54.260;20.822;2023-06-14T06:59:49;101284.16;;;30.96;37.13
52777;BME280;38656;54.260;20.822;2023-06-14T07:02:15;101279.06;;;31.11;37.09
52777;BME280;38656;54.260;20.822;2023-06-14T07:04:42;101285.59;;;31.63;36.11
52777;BME280;38656;54.260;20.822;2023-06-14T07:07:08;101282.34;;;30.30;36.81
52777;BME280;38656;54.260;20.822;2023-06-14T07:09:36;101278.59;;;30.79;36.72
52777;BME280;38656;54.260;20.822;2023-06-14T07:12:02;101279.09;;;30.64;36.81
52777;BME280;38656;54.260;20.822;2023-06-14T07:14:28;101283.31;;;31.88;35.53
52777;BME280;38656;54.260;20.822;2023-06-14T07:16:56;101280.41;;;30.73;36.20
52777;BME280;38656;54.260;20.822;2023-06-14T07:19:22;101273.16;;;30.67;36.08
52777;BME280;38656;54.260;20.822;2023-06-14T07:21:48;101275.44;;;31.75;35.10
52777;BME280;38656;54.260;20.822;2023-06-14T07:24:14;101275.84;;;32.13;35.02
52777;BME280;38656;54.260;20.822;2023-06-14T07:26:41;101278.06;;;31.70;34.43
52777;BME280;38656;54.260;20.822;2023-06-14T07:29:07;101278.25;;;30.75;34.27
52777;BME280;38656;54.260;20.822;2023-06-14T07:31:33;101278.69;;;31.19;34.37
52777;BME280;38656;54.260;20.822;2023-06-14T07:33:59;101278.91;;;31.30;34.68
52777;BME280;38656;54.260;20.822;2023-06-14T07:36:25;101287.00;;;31.65;34.19
52777;BME280;38656;54.260;20.822;2023-06-14T07:38:52;101278.09;;;32.67;33.09
52777;BME280;38656;54.260;20.822;2023-06-14T07:41:18;101281.47;;;32.40;33.22
52777;BME280;38656;54.260;20.822;2023-06-14T07:43:44;101280.00;;;32.15;32.69
52777;BME280;38656;54.260;20.822;2023-06-14T07:46:10;101279.16;;;32.83;32.14
52777;BME280;38656;54.260;20.822;2023-06-14T07:48:37;101285.06;;;32.96;31.75
52777;BME280;38656;54.260;20.822;2023-06-14T07:51:03;101286.19;;;33.40;31.69
52777;BME280;38656;54.260;20.822;2023-06-14T07:53:30;101277.47;;;32.81;31.57
52777;BME280;38656;54.260;20.822;2023-06-14T07:55:57;101275.75;;;33.86;31.89
52777;BME280;38656;54.260;20.822;2023-06-14T07:58:23;101284.41;;;33.73;30.88
52777;BME280;38656;54.260;20.822;2023-06-14T08:00:49;101283.50;;;33.94;30.99
52777;BME280;38656;54.260;20.822;2023-06-14T08:03:15;101282.72;;;33.72;31.35
52777;BME280;38656;54.260;20.822;2023-06-14T08:05:42;101277.72;;;34.23;30.60
52777;BME280;38656;54.260;20.822;2023-06-14T08:08:08;101284.97;;;32.52;31.86
52777;BME280;38656;54.260;20.822;2023-06-14T08:10:34;101288.06;;;32.95;30.91
52777;BME280;38656;54.260;20.822;2023-06-14T08:13:00;101290.75;;;32.73;31.03
52777;BME280;38656;54.260;20.822;2023-06-14T08:15:29;101285.13;;;33.02;31.48
52777;BME280;38656;54.260;20.822;2023-06-14T08:17:55;101279.63;;;33.90;30.76
52777;BME280;38656;54.260;20.822;2023-06-14T08:20:22;101284.22;;;34.12;30.55
52777;BME280;38656;54.260;20.822;2023-06-14T08:22:48;101283.03;;;33.26;31.03
52777;BME280;38656;54.260;20.822;2023-06-14T08:25:14;101282.47;;;33.07;30.86
52777;BME280;38656;54.260;20.822;2023-06-14T08:27:41;101280.47;;;33.41;31.60
52777;BME280;38656;54.260;20.822;2023-06-14T08:30:07;101273.47;;;34.37;31.18
52777;BME280;38656;54.260;20.822;2023-06-14T08:32:34;101288.13;;;32.78;31.42
52777;BME280;38656;54.260;20.822;2023-06-14T08:35:00;101281.28;;;32.97;31.40
52777;BME280;38656;54.260;20.822;2023-06-14T08:37:26;101277.81;;;33.74;30.65
52777;BME280;38656;54.260;20.822;2023-06-14T08:39:53;101277.34;;;33.55;31.05
52777;BME280;38656;54.260;20.822;2023-06-14T08:42:19;101279.53;;;33.30;30.83
52777;BME280;38656;54.260;20.822;2023-06-14T08:44:47;101272.38;;;34.38;30.35
52777;BME280;38656;54.260;20.822;2023-06-14T08:47:14;101276.28;;;35.54;29.40
52777;BME280;38656;54.260;20.822;2023-06-14T08:49:41;101275.34;;;34.74;29.45
52777;BME280;38656;54.260;20.822;2023-06-14T08:52:11;101274.66;;;33.87;29.86
52777;BME280;38656;54.260;20.822;2023-06-14T08:54:38;101273.22;;;34.82;29.69
52777;BME280;38656;54.260;20.822;2023-06-14T08:57:13;101270.47;;;34.82;29.45
52777;BME280;38656;54.260;20.822;2023-06-14T08:59:48;101277.44;;;35.78;28.97
52777;BME280;38656;54.260;20.822;2023-06-14T09:02:18;101272.25;;;37.35;28.14
52777;BME280;38656;54.260;20.822;2023-06-14T09:04:46;101271.94;;;36.50;27.65
52777;BME280;38656;54.260;20.822;2023-06-14T09:07:12;101273.03;;;36.55;27.65
52777;BME280;38656;54.260;20.822;2023-06-14T09:09:41;101273.63;;;35.90;26.90
52777;BME280;38656;54.260;20.822;2023-06-14T09:12:11;101275.66;;;35.31;26.83
52777;BME280;38656;54.260;20.822;2023-06-14T09:14:38;101271.66;;;35.80;25.83
52777;BME280;38656;54.260;20.822;2023-06-14T09:17:06;101262.84;;;37.41;25.38
52777;BME280;38656;54.260;20.822;2023-06-14T09:19:34;101260.97;;;36.45;24.97
52777;BME280;38656;54.260;20.822;2023-06-14T09:22:03;101273.41;;;37.24;24.32
52777;BME280;38656;54.260;20.822;2023-06-14T09:24:29;101266.47;;;36.45;23.75
52777;BME280;38656;54.260;20.822;2023-06-14T09:26:55;101261.50;;;36.11;24.20
52777;BME280;38656;54.260;20.822;2023-06-14T09:29:21;101261.53;;;35.91;25.35
52777;BME280;38656;54.260;20.822;2023-06-14T09:31:48;101254.63;;;36.14;24.19
52777;BME280;38656;54.260;20.822;2023-06-14T09:34:14;101255.41;;;35.58;24.47
52777;BME280;38656;54.260;20.822;2023-06-14T09:36:42;101252.28;;;34.70;24.66
52777;BME280;38656;54.260;20.822;2023-06-14T09:39:08;101251.63;;;35.06;24.48
52777;BME280;38656;54.260;20.822;2023-06-14T09:41:40;101250.50;;;36.17;24.47
52777;BME280;38656;54.260;20.822;2023-06-14T09:44:08;101251.50;;;36.82;24.04
52777;BME280;38656;54.260;20.822;2023-06-14T09:46:35;101246.19;;;37.07;23.86
52777;BME280;38656;54.260;20.822;2023-06-14T09:49:03;101242.81;;;35.98;24.56
52777;BME280;38656;54.260;20.822;2023-06-14T09:51:30;101250.34;;;37.04;24.59
52777;BME280;38656;54.260;20.822;2023-06-14T09:54:01;101256.53;;;36.55;23.97
52777;BME280;38656;54.260;20.822;2023-06-14T09:56:29;101250.41;;;36.89;24.21
52777;BME280;38656;54.260;20.822;2023-06-14T09:58:57;101244.97;;;36.58;24.02
52777;BME280;38656;54.260;20.822;2023-06-14T10:01:25;101247.47;;;36.49;24.80
52777;BME280;38656;54.260;20.822;2023-06-14T10:04:01;101245.50;;;35.62;24.44
52777;BME280;38656;54.260;20.822;2023-06-14T10:06:29;101239.91;;;35.26;24.99
52777;BME280;38656;54.260;20.822;2023-06-14T10:08:58;101245.00;;;36.42;24.92
52777;BME280;38656;54.260;20.822;2023-06-14T10:11:29;101233.91;;;35.34;24.14
52777;BME280;38656;54.260;20.822;2023-06-14T10:13:59;101244.16;;;36.16;23.73
52777;BME280;38656;54.260;20.822;2023-06-14T10:16:27;101249.25;;;35.25;24.96
52777;BME280;38656;54.260;20.822;2023-06-14T10:24:35;101240.88;;;37.31;23.04
52777;BME280;38656;54.260;20.822;2023-06-14T10:27:07;101235.84;;;35.39;24.57
52777;BME280;38656;54.260;20.822;2023-06-14T10:32:23;101238.78;;;35.17;23.95
52777;BME280;38656;54.260;20.822;2023-06-14T10:35:02;101232.22;;;34.70;24.82
52777;BME280;38656;54.260;20.822;2023-06-14T10:37:30;101243.34;;;35.74;24.20
52777;BME280;38656;54.260;20.822;2023-06-14T10:39:57;101236.78;;;35.02;23.65
52777;BME280;38656;54.260;20.822;2023-06-14T10:42:29;101231.00;;;35.87;22.74
52777;BME280;38656;54.260;20.822;2023-06-14T10:44:58;101239.66;;;36.92;22.86
52777;BME280;38656;54.260;20.822;2023-06-14T10:47:34;101239.31;;;36.99;22.96
52777;BME280;38656;54.260;20.822;2023-06-14T10:50:09;101235.03;;;35.38;24.21
52777;BME280;38656;54.260;20.822;2023-06-14T10:52:41;101233.63;;;34.72;24.65
52777;BME280;38656;54.260;20.822;2023-06-14T10:55:16;101239.38;;;34.66;24.90
52777;BME280;38656;54.260;20.822;2023-06-14T10:57:52;101234.78;;;34.77;25.15
52777;BME280;38656;54.260;20.822;2023-06-14T11:00:25;101239.22;;;34.08;26.43
52777;BME280;38656;54.260;20.822;2023-06-14T11:05:54;101245.34;;;33.16;27.71
52777;BME280;38656;54.260;20.822;2023-06-14T11:08:33;101248.34;;;33.86;26.74
52777;BME280;38656;54.260;20.822;2023-06-14T11:11:08;101238.72;;;34.16;26.83
52777;BME280;38656;54.260;20.822;2023-06-14T11:13:39;101238.63;;;33.46;26.73
52777;BME280;38656;54.260;20.822;2023-06-14T11:16:17;101243.16;;;33.62;27.65
52777;BME280;38656;54.260;20.822;2023-06-14T11:18:45;101247.09;;;33.72;27.13
52777;BME280;38656;54.260;20.822;2023-06-14T11:21:18;101249.38;;;33.80;27.45
52777;BME280;38656;54.260;20.822;2023-06-14T11:23:53;101244.34;;;32.78;28.15
52777;BME280;38656;54.260;20.822;2023-06-14T11:26:28;101239.00;;;32.88;27.92
52777;BME280;38656;54.260;20.822;2023-06-14T11:28:59;101243.66;;;32.15;28.02
52777;BME280;38656;54.260;20.822;2023-06-14T11:31:26;101246.81;;;32.23;29.15
52777;BME280;38656;54.260;20.822;2023-06-14T11:33:57;101246.50;;;32.08;29.48
52777;BME280;38656;54.260;20.822;2023-06-14T11:36:30;101249.41;;;32.01;29.21
52777;BME280;38656;54.260;20.822;2023-06-14T11:39:07;101255.81;;;30.97;30.81
52777;BME280;38656;54.260;20.822;2023-06-14T11:41:38;101257.72;;;31.77;30.28
52777;BME280;38656;54.260;20.822;2023-06-14T11:44:06;101258.28;;;31.22;30.23
52777;BME280;38656;54.260;20.822;2023-06-14T11:46:32;101266.84;;;30.31;30.91
52777;BME280;38656;54.260;20.822;2023-06-14T11:48:58;101264.50;;;29.92;31.63
52777;BME280;38656;54.260;20.822;2023-06-14T11:51:25;101269.88;;;30.23;32.08
52777;BME280;38656;54.260;20.822;2023-06-14T11:53:51;101272.25;;;30.07;31.87
52777;BME280;38656;54.260;20.822;2023-06-14T11:56:18;101275.50;;;29.67;32.08
52777;BME280;38656;54.260;20.822;2023-06-14T11:58:44;101275.38;;;29.62;32.69
52777;BME280;38656;54.260;20.822;2023-06-14T12:01:17;101276.34;;;30.40;32.22
52777;BME280;38656;54.260;20.822;2023-06-14T12:03:48;101293.84;;;29.41;35.42
52777;BME280;38656;54.260;20.822;2023-06-14T12:06:15;101301.63;;;28.75;40.50
52777;BME280;38656;54.260;20.822;2023-06-14T12:08:43;101312.72;;;28.23;45.15
52777;BME280;38656;54.260;20.822;2023-06-14T12:11:23;101313.63;;;29.11;44.86
52777;BME280;38656;54.260;20.822;2023-06-14T12:13:58;101307.75;;;29.52;44.48
52777;BME280;38656;54.260;20.822;2023-06-14T12:16:31;101305.22;;;28.19;47.81
52777;BME280;38656;54.260;20.822;2023-06-14T12:19:07;101315.34;;;27.53;49.80
52777;BME280;38656;54.260;20.822;2023-06-14T12:21:34;101321.69;;;28.24;49.58
52777;BME280;38656;54.260;20.822;2023-06-14T12:24:04;101321.22;;;27.95;51.89
52777;BME280;38656;54.260;20.822;2023-06-14T12:26:32;101324.19;;;27.42;53.73
52777;BME280;38656;54.260;20.822;2023-06-14T12:28:59;101321.91;;;27.25;55.17
52777;BME280;38656;54.260;20.822;2023-06-14T12:31:25;101326.25;;;27.40;56.50
52777;BME280;38656;54.260;20.822;2023-06-14T12:33:52;101319.00;;;27.13;54.68
52777;BME280;38656;54.260;20.822;2023-06-14T12:36:20;101315.25;;;26.14;59.95
52777;BME280;38656;54.260;20.822;2023-06-14T12:38:46;101313.38;;;26.21;62.11
52777;BME280;38656;54.260;20.822;2023-06-14T12:41:12;101311.66;;;24.38;70.91
52777;BME280;38656;54.260;20.822;2023-06-14T12:43:40;101307.25;;;25.37;67.70
52777;BME280;38656;54.260;20.822;2023-06-14T12:46:06;101316.47;;;27.18;58.48
52777;BME280;38656;54.260;20.822;2023-06-14T12:48:32;101319.25;;;27.70;58.43
52777;BME280;38656;54.260;20.822;2023-06-14T12:51:00;101318.50;;;27.50;57.42
52777;BME280;38656;54.260;20.822;2023-06-14T12:53:26;101326.06;;;27.21;58.65
52777;BME280;38656;54.260;20.822;2023-06-14T12:55:52;101327.97;;;26.54;62.44
52777;BME280;38656;54.260;20.822;2023-06-14T12:58:18;101319.38;;;27.30;59.38
52777;BME280;38656;54.260;20.822;2023-06-14T13:00:46;101322.06;;;27.30;60.36